Altonah, Utah
Current Conditions -  °F | °C
As of 1:53 PM on Tuesday 21 Oct 2014 (Local Time) from KVEL Reporting Station
Clear Clear  
Wind Chill: 18°   Ceiling: Unl
Heat Index: 18°   Visibility: 10mi
Dew Point:   Wind: 8mph
Humidity: 42%   Direction: 210°SSW
Pressure: 29.95"   Gusts: NA
Location:  40.4°N, 110.29°W
Report Text: KVEL 211953Z AUTO 21007KT 10SM CLR 18/05 A2995 RMK AO2 LTG DSNT W SLP104 T01830050
Loading
Personal Weather Stations






























Interactive Weather Map
Tropical Storm Tracking
New forecast layout! Learn more

10-Day Weather Forecast

Advertisements
Track Severe Weather on mobile